createdAt,value
2023-02-09T00:04:10.232Z,0.80
2023-02-09T00:09:12.123Z,0.80
2023-02-09T00:14:16.446Z,0.80
2023-02-09T00:19:20.181Z,0.80
2023-02-09T00:24:21.920Z,0.80
2023-02-09T00:29:24.094Z,0.80
2023-02-09T00:34:25.877Z,0.70
2023-02-09T00:39:27.576Z,0.70
2023-02-09T00:44:29.348Z,0.60
2023-02-09T00:49:31.913Z,0.60
2023-02-09T00:54:33.630Z,0.50
2023-02-09T00:59:40.583Z,0.40
2023-02-09T01:04:42.476Z,0.40
2023-02-09T01:09:44.287Z,0.30
2023-02-09T01:14:46.100Z,0.30
2023-02-09T01:19:52.011Z,0.30
2023-02-09T01:24:53.737Z,0.20
2023-02-09T01:29:55.511Z,0.20
2023-02-09T01:34:57.233Z,0.10
2023-02-09T01:39:58.972Z,0.10
2023-02-09T01:45:21.863Z,0.10
2023-02-09T01:50:26.232Z,0.10
2023-02-09T01:55:31.575Z,0.10
2023-02-09T02:00:34.634Z,0.20
2023-02-09T02:05:42.965Z,0.10
2023-02-09T02:10:45.787Z,0.20
2023-02-09T02:15:53.456Z,0.20
2023-02-09T02:21:22.858Z,0.20
2023-02-09T02:26:43.299Z,0.20
2023-02-09T02:31:57.219Z,0.10
2023-02-09T02:37:11.150Z,0.10
2023-02-09T02:42:48.184Z,0.10
2023-02-09T02:48:07.729Z,0.00
2023-02-09T02:53:12.376Z,0.00
2023-02-09T02:58:16.118Z,-0.10
2023-02-09T03:03:24.777Z,-0.10
2023-02-09T03:08:26.797Z,-0.10
2023-02-09T03:13:31.382Z,0.00
2023-02-09T03:19:01.790Z,0.00
2023-02-09T03:24:16.557Z,0.10
2023-02-09T03:29:20.657Z,0.10
2023-02-09T03:34:22.767Z,0.20
2023-02-09T03:39:24.587Z,0.20
2023-02-09T03:44:26.499Z,0.20
2023-02-09T03:49:31.684Z,0.10
2023-02-09T03:54:34.174Z,0.10
2023-02-09T03:59:37.734Z,0.00
2023-02-09T04:04:39.551Z,-0.10
2023-02-09T04:09:41.419Z,-0.10
2023-02-09T04:14:43.149Z,-0.10
2023-02-09T04:19:44.967Z,0.00
2023-02-09T04:24:46.796Z,-0.10
2023-02-09T04:29:48.537Z,0.00
2023-02-09T04:34:50.269Z,-0.10
2023-02-09T04:39:52.021Z,-0.20
2023-02-09T04:44:53.734Z,-0.10
2023-02-09T04:49:55.769Z,-0.20
2023-02-09T04:54:57.539Z,-0.10
2023-02-09T04:59:59.272Z,-0.10
2023-02-09T05:05:01.007Z,-0.10
2023-02-09T05:10:03.236Z,-0.20
2023-02-09T05:15:05.246Z,-0.30
2023-02-09T05:20:08.469Z,-0.20
2023-02-09T05:25:10.506Z,-0.30
2023-02-09T05:30:12.544Z,-0.30
2023-02-09T05:35:14.616Z,-0.40
2023-02-09T05:40:16.806Z,-0.30
2023-02-09T05:45:18.604Z,-0.30
2023-02-09T05:50:20.336Z,-0.30
2023-02-09T05:55:22.105Z,-0.30
2023-02-09T06:00:25.163Z,-0.40
2023-02-09T06:05:27.307Z,-0.30
2023-02-09T06:10:29.166Z,-0.30
2023-02-09T06:15:31.053Z,-0.30
2023-02-09T06:20:32.928Z,-0.40
2023-02-09T06:25:34.687Z,-0.50
2023-02-09T06:30:36.562Z,-0.50
2023-02-09T06:35:38.508Z,-0.50
2023-02-09T06:40:40.262Z,-0.50
2023-02-09T06:45:42.549Z,-0.50
2023-02-09T06:50:44.827Z,-0.30
2023-02-09T06:55:46.929Z,-0.20
2023-02-09T07:00:48.874Z,-0.10
2023-02-09T07:05:50.604Z,0.10
2023-02-09T07:10:52.490Z,0.30
2023-02-09T07:16:00.343Z,0.40
2023-02-09T07:21:06.829Z,0.20
2023-02-09T07:26:13.548Z,0.20
2023-02-09T07:31:16.551Z,0.20
2023-02-09T07:36:18.391Z,0.30
2023-02-09T07:41:25.161Z,0.30
2023-02-09T07:46:27.009Z,0.30
2023-02-09T07:51:29.355Z,0.40
2023-02-09T07:56:31.173Z,0.40
2023-02-09T08:01:34.198Z,0.50
2023-02-09T08:06:43.155Z,0.60
2023-02-09T08:12:11.695Z,0.70
2023-02-09T08:17:28.101Z,0.70
2023-02-09T08:22:33.488Z,0.50
2023-02-09T08:27:37.411Z,0.70
2023-02-09T08:32:39.118Z,0.60
2023-02-09T08:37:40.988Z,0.80
2023-02-09T08:42:42.708Z,0.90
2023-02-09T08:47:44.484Z,0.80
2023-02-09T08:52:46.433Z,0.70
2023-02-09T08:57:48.161Z,0.80
2023-02-09T09:02:50.046Z,0.90
2023-02-09T09:07:51.863Z,1.00
2023-02-09T09:12:53.813Z,0.90
2023-02-09T09:17:55.549Z,0.90
2023-02-09T09:22:59.498Z,0.80
2023-02-09T09:28:01.684Z,0.90
2023-02-09T09:33:04.001Z,0.90
2023-02-09T09:38:05.857Z,0.90
2023-02-09T09:43:27.038Z,0.70
2023-02-09T09:48:59.326Z,0.80
2023-02-09T09:54:03.409Z,0.70
2023-02-09T09:59:05.551Z,0.80
2023-02-09T10:04:13.344Z,1.00
2023-02-09T10:09:53.961Z,1.00
2023-02-09T10:14:55.871Z,0.90
2023-02-09T10:20:05.578Z,1.00
2023-02-09T10:25:50.090Z,1.00
2023-02-09T10:30:54.542Z,1.00
2023-02-09T10:35:59.775Z,1.10
2023-02-09T10:41:01.822Z,1.50
2023-02-09T10:46:17.688Z,1.60
2023-02-09T10:51:29.996Z,1.60
2023-02-09T10:56:48.157Z,1.70
2023-02-09T11:01:58.690Z,2.00
2023-02-09T11:07:03.802Z,1.80
2023-02-09T11:12:09.812Z,1.60
2023-02-09T11:17:11.653Z,1.30
2023-02-09T11:22:35.131Z,1.40
2023-02-09T11:27:36.907Z,1.10
2023-02-09T11:33:03.168Z,1.00
2023-02-09T11:38:19.143Z,1.00
2023-02-09T11:43:25.997Z,0.90
2023-02-09T11:48:33.494Z,0.80
2023-02-09T11:54:00.760Z,0.80
2023-02-09T11:59:31.669Z,0.80
2023-02-09T12:04:53.120Z,0.70
2023-02-09T12:10:11.025Z,0.70
2023-02-09T12:15:17.074Z,0.80
2023-02-09T12:20:37.315Z,0.80
2023-02-09T12:26:00.413Z,0.80
2023-02-09T12:31:24.539Z,0.90
2023-02-09T12:36:32.483Z,0.80
2023-02-09T12:41:34.172Z,0.90
2023-02-09T12:46:44.868Z,0.90
2023-02-09T12:51:54.292Z,1.00
2023-02-09T12:56:56.689Z,1.00
2023-02-09T13:02:07.744Z,0.90
2023-02-09T13:07:29.549Z,1.00
2023-02-09T13:12:37.940Z,0.90
2023-02-09T13:18:06.864Z,1.00
2023-02-09T13:23:33.428Z,1.00
2023-02-09T13:28:35.306Z,0.90
2023-02-09T13:33:49.156Z,0.90
2023-02-09T13:38:51.256Z,0.90
2023-02-09T13:43:53.181Z,0.80
2023-02-09T13:49:09.040Z,0.70
2023-02-09T13:54:20.832Z,0.70
2023-02-09T13:59:22.614Z,0.70
2023-02-09T14:04:31.467Z,0.80
2023-02-09T14:09:54.859Z,0.90
2023-02-09T14:15:15.950Z,0.90
2023-02-09T14:20:24.646Z,0.90
2023-02-09T14:25:31.368Z,0.90
2023-02-09T14:30:36.781Z,0.90
2023-02-09T14:35:42.158Z,0.90
2023-02-09T14:40:43.897Z,0.80
2023-02-09T14:45:58.824Z,0.70
2023-02-09T14:51:09.865Z,0.80
2023-02-09T14:56:31.129Z,0.70
2023-02-09T15:01:32.935Z,0.70
2023-02-09T15:06:36.062Z,0.60
2023-02-09T15:11:56.444Z,0.60
2023-02-09T15:16:58.429Z,0.70
2023-02-09T15:22:07.478Z,0.60
2023-02-09T15:27:26.898Z,0.50
2023-02-09T15:32:28.985Z,0.40
2023-02-09T15:37:37.328Z,0.40
2023-02-09T15:42:58.496Z,0.30
2023-02-09T15:48:00.326Z,0.30
2023-02-09T15:53:08.008Z,0.30
2023-02-09T15:58:35.673Z,0.20
2023-02-09T16:03:37.493Z,0.20
2023-02-09T16:08:39.397Z,0.20
2023-02-09T16:13:41.113Z,0.10
2023-02-09T16:18:43.310Z,0.20
2023-02-09T16:23:46.619Z,0.20
2023-02-09T16:28:48.840Z,0.20
2023-02-09T16:33:51.425Z,0.20
2023-02-09T16:38:53.203Z,0.10
2023-02-09T16:43:54.948Z,0.20
2023-02-09T16:48:58.551Z,0.10
2023-02-09T16:54:00.342Z,0.20
2023-02-09T16:59:02.149Z,0.10
2023-02-09T17:04:07.227Z,0.20
2023-02-09T17:09:15.703Z,0.20
2023-02-09T17:14:17.346Z,0.20
2023-02-09T17:19:19.498Z,0.20
2023-02-09T17:24:21.371Z,0.20
2023-02-09T17:29:23.463Z,0.20
2023-02-09T17:34:28.341Z,0.20
2023-02-09T17:39:30.974Z,0.20
2023-02-09T17:44:45.654Z,0.10
2023-02-09T17:49:48.454Z,0.10
2023-02-09T17:54:50.922Z,0.10
2023-02-09T17:59:52.751Z,0.00
2023-02-09T18:04:54.471Z,0.10
2023-02-09T18:09:56.693Z,0.10
2023-02-09T18:14:59.225Z,0.10
2023-02-09T18:20:01.096Z,0.00
2023-02-09T18:25:02.843Z,0.00
2023-02-09T18:30:05.322Z,0.00
2023-02-09T18:35:07.693Z,0.00
2023-02-09T18:40:09.712Z,0.00
2023-02-09T18:45:13.432Z,0.00
2023-02-09T18:50:21.111Z,0.00
2023-02-09T18:55:25.345Z,0.00
2023-02-09T19:00:27.424Z,0.00
2023-02-09T19:05:32.301Z,0.00
2023-02-09T19:10:35.984Z,0.00
2023-02-09T19:15:39.263Z,0.10
2023-02-09T19:20:41.340Z,0.10
2023-02-09T19:25:43.158Z,0.10
2023-02-09T19:30:44.969Z,0.10
2023-02-09T19:35:54.789Z,0.10
2023-02-09T19:41:10.378Z,0.10
2023-02-09T19:46:13.208Z,0.00
2023-02-09T19:51:15.524Z,0.00
2023-02-09T19:56:20.677Z,0.00
2023-02-09T20:01:22.585Z,0.00
2023-02-09T20:06:25.152Z,0.00
2023-02-09T20:11:27.491Z,0.00
2023-02-09T20:16:29.381Z,0.00
2023-02-09T20:21:31.240Z,0.00
2023-02-09T20:26:33.350Z,0.00
2023-02-09T20:31:38.470Z,0.00
2023-02-09T20:36:42.269Z,0.10
2023-02-09T20:42:04.645Z,0.00
2023-02-09T20:47:06.417Z,0.10
2023-02-09T20:52:08.992Z,0.20
2023-02-09T20:57:10.752Z,0.20
2023-02-09T21:02:15.019Z,0.20
2023-02-09T21:07:19.978Z,0.30
2023-02-09T21:12:22.152Z,0.30
2023-02-09T21:17:23.946Z,0.30
2023-02-09T21:22:25.738Z,0.40
2023-02-09T21:27:27.492Z,0.30
2023-02-09T21:32:29.412Z,0.30
2023-02-09T21:37:32.447Z,0.30
2023-02-09T21:42:35.588Z,0.40
2023-02-09T21:47:39.370Z,0.40
2023-02-09T21:52:41.305Z,0.50
2023-02-09T21:57:43.088Z,0.40
2023-02-09T22:02:45.588Z,0.50
2023-02-09T22:07:48.368Z,0.50
2023-02-09T22:12:50.245Z,0.60
2023-02-09T22:17:51.955Z,0.60
2023-02-09T22:22:53.677Z,0.60
2023-02-09T22:27:55.449Z,0.60
2023-02-09T22:32:57.485Z,0.60
2023-02-09T22:37:59.229Z,0.60
2023-02-09T22:43:01.081Z,0.60
2023-02-09T22:48:02.973Z,0.60
2023-02-09T22:53:04.845Z,0.70
2023-02-09T22:58:06.626Z,0.60
2023-02-09T23:03:08.385Z,0.70
2023-02-09T23:08:10.356Z,0.70
2023-02-09T23:13:12.133Z,0.70
2023-02-09T23:18:13.889Z,0.70
2023-02-09T23:23:16.390Z,0.70
2023-02-09T23:28:18.148Z,0.70
2023-02-09T23:33:20.238Z,0.80
2023-02-09T23:38:21.934Z,0.80
2023-02-09T23:43:23.687Z,0.80
2023-02-09T23:48:25.496Z,0.80
2023-02-09T23:53:28.907Z,0.70
2023-02-09T23:58:39.329Z,0.70
